sensor_id;sensor_type;location;lat;lon;timestamp;P1;durP1;ratioP1;P2;durP2;ratioP2
59766;SDS011;46248;58.364;25.582;2023-04-08T00:00:32;3.35;;;1.50;;
59766;SDS011;46248;58.364;25.582;2023-04-08T00:03:55;1.95;;;1.75;;
59766;SDS011;46248;58.364;25.582;2023-04-08T00:07:17;2.20;;;1.75;;
59766;SDS011;46248;58.364;25.582;2023-04-08T00:10:39;2.67;;;1.20;;
59766;SDS011;46248;58.364;25.582;2023-04-08T00:14:01;4.18;;;1.27;;
59766;SDS011;46248;58.364;25.582;2023-04-08T00:17:24;3.33;;;1.58;;
59766;SDS011;46248;58.364;25.582;2023-04-08T00:20:47;2.00;;;1.27;;
59766;SDS011;46248;58.364;25.582;2023-04-08T00:24:09;1.92;;;1.20;;
59766;SDS011;46248;58.364;25.582;2023-04-08T00:27:31;2.83;;;1.60;;
59766;SDS011;46248;58.364;25.582;2023-04-08T00:30:53;3.63;;;1.80;;
59766;SDS011;46248;58.364;25.582;2023-04-08T00:34:15;2.95;;;2.42;;
59766;SDS011;46248;58.364;25.582;2023-04-08T00:37:38;2.92;;;1.88;;
59766;SDS011;46248;58.364;25.582;2023-04-08T00:41:01;2.63;;;1.83;;
59766;SDS011;46248;58.364;25.582;2023-04-08T00:44:23;2.88;;;2.67;;
59766;SDS011;46248;58.364;25.582;2023-04-08T00:47:45;2.67;;;1.25;;
59766;SDS011;46248;58.364;25.582;2023-04-08T00:51:12;3.85;;;1.08;;
59766;SDS011;46248;58.364;25.582;2023-04-08T00:54:36;1.10;;;0.90;;
59766;SDS011;46248;58.364;25.582;2023-04-08T00:57:58;2.22;;;1.08;;
59766;SDS011;46248;58.364;25.582;2023-04-08T01:01:21;3.60;;;1.50;;
59766;SDS011;46248;58.364;25.582;2023-04-08T01:04:52;3.40;;;1.25;;
59766;SDS011;46248;58.364;25.582;2023-04-08T01:08:20;2.65;;;1.50;;
59766;SDS011;46248;58.364;25.582;2023-04-08T01:11:47;2.15;;;1.35;;
59766;SDS011;46248;58.364;25.582;2023-04-08T01:15:11;1.35;;;1.15;;
59766;SDS011;46248;58.364;25.582;2023-04-08T01:18:33;2.03;;;1.10;;
59766;SDS011;46248;58.364;25.582;2023-04-08T01:21:59;2.90;;;2.70;;
59766;SDS011;46248;58.364;25.582;2023-04-08T01:25:28;3.58;;;2.05;;
59766;SDS011;46248;58.364;25.582;2023-04-08T01:28:53;2.25;;;1.35;;
59766;SDS011;46248;58.364;25.582;2023-04-08T01:32:18;2.38;;;1.30;;
59766;SDS011;46248;58.364;25.582;2023-04-08T01:35:41;1.15;;;1.05;;
59766;SDS011;46248;58.364;25.582;2023-04-08T01:39:03;1.50;;;1.23;;
59766;SDS011;46248;58.364;25.582;2023-04-08T01:42:27;1.65;;;1.55;;
59766;SDS011;46248;58.364;25.582;2023-04-08T01:45:52;1.00;;;0.90;;
59766;SDS011;46248;58.364;25.582;2023-04-08T01:49:17;1.83;;;1.15;;
59766;SDS011;46248;58.364;25.582;2023-04-08T01:52:39;1.80;;;1.23;;
59766;SDS011;46248;58.364;25.582;2023-04-08T01:56:04;2.75;;;1.35;;
59766;SDS011;46248;58.364;25.582;2023-04-08T01:59:28;3.70;;;1.35;;
59766;SDS011;46248;58.364;25.582;2023-04-08T02:02:56;5.22;;;1.45;;
59766;SDS011;46248;58.364;25.582;2023-04-08T02:06:20;3.80;;;1.77;;
59766;SDS011;46248;58.364;25.582;2023-04-08T02:09:41;3.30;;;3.00;;
59766;SDS011;46248;58.364;25.582;2023-04-08T02:13:03;5.07;;;3.55;;
59766;SDS011;46248;58.364;25.582;2023-04-08T02:16:28;6.30;;;2.53;;
59766;SDS011;46248;58.364;25.582;2023-04-08T02:19:58;3.75;;;1.42;;
59766;SDS011;46248;58.364;25.582;2023-04-08T02:23:23;3.03;;;1.20;;
59766;SDS011;46248;58.364;25.582;2023-04-08T02:26:48;1.55;;;1.15;;
59766;SDS011;46248;58.364;25.582;2023-04-08T02:30:11;4.05;;;1.73;;
59766;SDS011;46248;58.364;25.582;2023-04-08T02:33:35;3.33;;;1.40;;
59766;SDS011;46248;58.364;25.582;2023-04-08T02:37:00;2.83;;;1.50;;
59766;SDS011;46248;58.364;25.582;2023-04-08T02:40:23;2.60;;;1.98;;
59766;SDS011;46248;58.364;25.582;2023-04-08T02:43:46;3.85;;;2.38;;
59766;SDS011;46248;58.364;25.582;2023-04-08T02:47:08;2.80;;;2.60;;
59766;SDS011;46248;58.364;25.582;2023-04-08T02:50:30;4.65;;;1.83;;
59766;SDS011;46248;58.364;25.582;2023-04-08T02:53:53;3.72;;;2.45;;
59766;SDS011;46248;58.364;25.582;2023-04-08T02:57:15;2.78;;;2.15;;
59766;SDS011;46248;58.364;25.582;2023-04-08T03:00:37;2.92;;;1.00;;
59766;SDS011;46248;58.364;25.582;2023-04-08T03:03:59;2.13;;;1.05;;
59766;SDS011;46248;58.364;25.582;2023-04-08T03:07:21;2.67;;;1.58;;
59766;SDS011;46248;58.364;25.582;2023-04-08T03:10:44;2.13;;;0.98;;
59766;SDS011;46248;58.364;25.582;2023-04-08T03:14:06;1.40;;;0.80;;
59766;SDS011;46248;58.364;25.582;2023-04-08T03:17:28;2.65;;;1.10;;
59766;SDS011;46248;58.364;25.582;2023-04-08T03:20:53;2.17;;;1.00;;
59766;SDS011;46248;58.364;25.582;2023-04-08T03:24:15;2.08;;;1.38;;
59766;SDS011;46248;58.364;25.582;2023-04-08T03:27:38;2.13;;;1.40;;
59766;SDS011;46248;58.364;25.582;2023-04-08T03:31:01;4.63;;;3.08;;
59766;SDS011;46248;58.364;25.582;2023-04-08T03:34:24;6.07;;;2.65;;
59766;SDS011;46248;58.364;25.582;2023-04-08T03:37:46;4.28;;;3.10;;
59766;SDS011;46248;58.364;25.582;2023-04-08T03:41:10;4.35;;;2.25;;
59766;SDS011;46248;58.364;25.582;2023-04-08T03:44:33;2.80;;;1.77;;
59766;SDS011;46248;58.364;25.582;2023-04-08T03:47:55;3.35;;;1.70;;
59766;SDS011;46248;58.364;25.582;2023-04-08T03:51:17;3.03;;;1.40;;
59766;SDS011;46248;58.364;25.582;2023-04-08T03:54:39;2.05;;;1.30;;
59766;SDS011;46248;58.364;25.582;2023-04-08T03:58:01;3.03;;;1.30;;
59766;SDS011;46248;58.364;25.582;2023-04-08T04:01:24;2.75;;;1.27;;
59766;SDS011;46248;58.364;25.582;2023-04-08T04:04:47;1.73;;;1.23;;
59766;SDS011;46248;58.364;25.582;2023-04-08T04:08:08;6.05;;;1.67;;
59766;SDS011;46248;58.364;25.582;2023-04-08T04:11:30;7.50;;;1.90;;
59766;SDS011;46248;58.364;25.582;2023-04-08T04:14:54;3.42;;;2.10;;
59766;SDS011;46248;58.364;25.582;2023-04-08T04:18:17;5.72;;;2.00;;
59766;SDS011;46248;58.364;25.582;2023-04-08T04:21:39;5.38;;;1.70;;
59766;SDS011;46248;58.364;25.582;2023-04-08T04:25:01;4.05;;;2.17;;
59766;SDS011;46248;58.364;25.582;2023-04-08T04:28:23;3.15;;;1.70;;
59766;SDS011;46248;58.364;25.582;2023-04-08T04:31:45;2.83;;;1.85;;
59766;SDS011;46248;58.364;25.582;2023-04-08T04:35:09;2.50;;;1.52;;
59766;SDS011;46248;58.364;25.582;2023-04-08T04:38:31;4.80;;;3.53;;
59766;SDS011;46248;58.364;25.582;2023-04-08T04:41:53;5.57;;;2.13;;
59766;SDS011;46248;58.364;25.582;2023-04-08T04:45:15;4.57;;;2.25;;
59766;SDS011;46248;58.364;25.582;2023-04-08T04:48:37;3.40;;;1.73;;
59766;SDS011;46248;58.364;25.582;2023-04-08T04:52:00;2.42;;;2.10;;
59766;SDS011;46248;58.364;25.582;2023-04-08T04:55:22;8.85;;;2.63;;
59766;SDS011;46248;58.364;25.582;2023-04-08T04:58:45;4.22;;;1.80;;
59766;SDS011;46248;58.364;25.582;2023-04-08T05:02:07;2.17;;;1.77;;
59766;SDS011;46248;58.364;25.582;2023-04-08T05:05:29;4.15;;;3.63;;
59766;SDS011;46248;58.364;25.582;2023-04-08T05:08:53;4.18;;;2.25;;
59766;SDS011;46248;58.364;25.582;2023-04-08T05:12:14;3.97;;;2.13;;
59766;SDS011;46248;58.364;25.582;2023-04-08T05:15:36;9.63;;;3.50;;
59766;SDS011;46248;58.364;25.582;2023-04-08T05:18:58;5.57;;;2.75;;
59766;SDS011;46248;58.364;25.582;2023-04-08T05:22:20;5.80;;;3.25;;
59766;SDS011;46248;58.364;25.582;2023-04-08T05:25:43;5.70;;;2.70;;
59766;SDS011;46248;58.364;25.582;2023-04-08T05:29:05;2.78;;;2.00;;
59766;SDS011;46248;58.364;25.582;2023-04-08T05:32:26;6.63;;;2.35;;
59766;SDS011;46248;58.364;25.582;2023-04-08T05:35:49;2.22;;;1.80;;
59766;SDS011;46248;58.364;25.582;2023-04-08T05:39:12;2.50;;;1.50;;
59766;SDS011;46248;58.364;25.582;2023-04-08T05:42:35;6.32;;;2.55;;
59766;SDS011;46248;58.364;25.582;2023-04-08T05:45:57;5.82;;;2.85;;
59766;SDS011;46248;58.364;25.582;2023-04-08T05:49:19;3.92;;;2.33;;
59766;SDS011;46248;58.364;25.582;2023-04-08T05:52:41;3.10;;;1.95;;
59766;SDS011;46248;58.364;25.582;2023-04-08T05:56:04;5.35;;;2.25;;
59766;SDS011;46248;58.364;25.582;2023-04-08T05:59:30;5.00;;;2.20;;
59766;SDS011;46248;58.364;25.582;2023-04-08T06:02:52;5.75;;;2.25;;
59766;SDS011;46248;58.364;25.582;2023-04-08T06:06:15;5.00;;;2.53;;
59766;SDS011;46248;58.364;25.582;2023-04-08T06:09:36;3.80;;;2.03;;
59766;SDS011;46248;58.364;25.582;2023-04-08T06:12:58;7.60;;;2.38;;
59766;SDS011;46248;58.364;25.582;2023-04-08T06:16:22;6.47;;;2.92;;
59766;SDS011;46248;58.364;25.582;2023-04-08T06:19:44;5.93;;;2.08;;
59766;SDS011;46248;58.364;25.582;2023-04-08T06:23:06;3.85;;;1.98;;
59766;SDS011;46248;58.364;25.582;2023-04-08T06:26:28;3.08;;;2.22;;
59766;SDS011;46248;58.364;25.582;2023-04-08T06:29:51;3.50;;;1.70;;
59766;SDS011;46248;58.364;25.582;2023-04-08T06:33:16;2.50;;;1.40;;
59766;SDS011;46248;58.364;25.582;2023-04-08T06:36:39;4.32;;;2.42;;
59766;SDS011;46248;58.364;25.582;2023-04-08T06:40:01;5.55;;;2.05;;
59766;SDS011;46248;58.364;25.582;2023-04-08T06:43:24;7.78;;;1.45;;
59766;SDS011;46248;58.364;25.582;2023-04-08T06:46:46;5.35;;;1.58;;
59766;SDS011;46248;58.364;25.582;2023-04-08T06:50:10;7.50;;;1.65;;
59766;SDS011;46248;58.364;25.582;2023-04-08T06:53:32;3.03;;;1.20;;
59766;SDS011;46248;58.364;25.582;2023-04-08T06:56:55;2.63;;;1.67;;
59766;SDS011;46248;58.364;25.582;2023-04-08T07:00:17;2.95;;;1.55;;
59766;SDS011;46248;58.364;25.582;2023-04-08T07:03:40;1.27;;;1.13;;
59766;SDS011;46248;58.364;25.582;2023-04-08T07:07:03;1.23;;;0.80;;
59766;SDS011;46248;58.364;25.582;2023-04-08T07:10:25;2.22;;;1.20;;
59766;SDS011;46248;58.364;25.582;2023-04-08T07:13:49;1.88;;;1.55;;
59766;SDS011;46248;58.364;25.582;2023-04-08T07:17:11;1.15;;;0.93;;
59766;SDS011;46248;58.364;25.582;2023-04-08T07:20:33;5.10;;;1.58;;
59766;SDS011;46248;58.364;25.582;2023-04-08T07:23:59;2.72;;;1.90;;
59766;SDS011;46248;58.364;25.582;2023-04-08T07:27:21;1.60;;;1.23;;
59766;SDS011;46248;58.364;25.582;2023-04-08T07:30:43;3.05;;;1.20;;
59766;SDS011;46248;58.364;25.582;2023-04-08T07:34:05;0.65;;;0.65;;
59766;SDS011;46248;58.364;25.582;2023-04-08T07:37:26;1.77;;;0.90;;
59766;SDS011;46248;58.364;25.582;2023-04-08T07:40:50;2.47;;;0.90;;
59766;SDS011;46248;58.364;25.582;2023-04-08T07:44:12;3.58;;;1.20;;
59766;SDS011;46248;58.364;25.582;2023-04-08T07:47:36;1.33;;;0.93;;
59766;SDS011;46248;58.364;25.582;2023-04-08T07:51:01;1.00;;;0.95;;
59766;SDS011;46248;58.364;25.582;2023-04-08T07:54:30;2.40;;;1.80;;
59766;SDS011;46248;58.364;25.582;2023-04-08T07:57:54;1.98;;;1.17;;
59766;SDS011;46248;58.364;25.582;2023-04-08T08:01:17;6.57;;;3.17;;
59766;SDS011;46248;58.364;25.582;2023-04-08T08:04:40;3.70;;;2.30;;
59766;SDS011;46248;58.364;25.582;2023-04-08T08:08:02;2.20;;;1.23;;
59766;SDS011;46248;58.364;25.582;2023-04-08T08:11:27;1.13;;;0.90;;
59766;SDS011;46248;58.364;25.582;2023-04-08T08:14:50;9.13;;;4.50;;
59766;SDS011;46248;58.364;25.582;2023-04-08T08:18:13;10.32;;;1.95;;
59766;SDS011;46248;58.364;25.582;2023-04-08T08:21:36;3.70;;;1.65;;
59766;SDS011;46248;58.364;25.582;2023-04-08T08:24:58;15.98;;;5.35;;
59766;SDS011;46248;58.364;25.582;2023-04-08T08:28:20;4.25;;;1.90;;
59766;SDS011;46248;58.364;25.582;2023-04-08T08:31:44;2.13;;;1.38;;
59766;SDS011;46248;58.364;25.582;2023-04-08T08:35:08;16.08;;;4.30;;
59766;SDS011;46248;58.364;25.582;2023-04-08T08:38:30;3.30;;;1.90;;
59766;SDS011;46248;58.364;25.582;2023-04-08T08:41:52;2.63;;;1.40;;
59766;SDS011;46248;58.364;25.582;2023-04-08T08:45:16;2.15;;;1.23;;
59766;SDS011;46248;58.364;25.582;2023-04-08T08:48:41;5.45;;;1.00;;
59766;SDS011;46248;58.364;25.582;2023-04-08T08:52:03;2.70;;;0.85;;
59766;SDS011;46248;58.364;25.582;2023-04-08T08:55:28;15.48;;;7.55;;
59766;SDS011;46248;58.364;25.582;2023-04-08T08:59:11;5.18;;;1.60;;
59766;SDS011;46248;58.364;25.582;2023-04-08T09:02:33;1.73;;;1.30;;
59766;SDS011;46248;58.364;25.582;2023-04-08T09:05:59;1.80;;;0.80;;
59766;SDS011;46248;58.364;25.582;2023-04-08T09:09:23;0.93;;;0.75;;
59766;SDS011;46248;58.364;25.582;2023-04-08T09:12:52;1.15;;;0.70;;
59766;SDS011;46248;58.364;25.582;2023-04-08T09:16:16;3.38;;;0.73;;
59766;SDS011;46248;58.364;25.582;2023-04-08T09:27:12;1.52;;;1.42;;
59766;SDS011;46248;58.364;25.582;2023-04-08T09:30:34;3.30;;;1.40;;
59766;SDS011;46248;58.364;25.582;2023-04-08T09:33:56;2.08;;;1.30;;
59766;SDS011;46248;58.364;25.582;2023-04-08T09:37:20;3.00;;;0.80;;
59766;SDS011;46248;58.364;25.582;2023-04-08T09:40:43;1.48;;;0.95;;
59766;SDS011;46248;58.364;25.582;2023-04-08T09:44:06;2.50;;;0.98;;
59766;SDS011;46248;58.364;25.582;2023-04-08T09:47:29;2.83;;;1.30;;
59766;SDS011;46248;58.364;25.582;2023-04-08T09:50:57;1.87;;;0.90;;
59766;SDS011;46248;58.364;25.582;2023-04-08T09:54:20;3.97;;;0.80;;
59766;SDS011;46248;58.364;25.582;2023-04-08T09:57:49;0.65;;;0.63;;
59766;SDS011;46248;58.364;25.582;2023-04-08T10:01:13;1.23;;;1.10;;
59766;SDS011;46248;58.364;25.582;2023-04-08T10:04:38;2.20;;;0.90;;
59766;SDS011;46248;58.364;25.582;2023-04-08T10:08:02;2.17;;;0.90;;
59766;SDS011;46248;58.364;25.582;2023-04-08T10:11:26;3.08;;;1.10;;
59766;SDS011;46248;58.364;25.582;2023-04-08T10:18:44;2.20;;;0.95;;
59766;SDS011;46248;58.364;25.582;2023-04-08T10:26:03;4.07;;;2.08;;
59766;SDS011;46248;58.364;25.582;2023-04-08T10:29:52;4.95;;;2.03;;
59766;SDS011;46248;58.364;25.582;2023-04-08T10:33:16;9.15;;;1.45;;
59766;SDS011;46248;58.364;25.582;2023-04-08T10:36:39;1.83;;;0.80;;
59766;SDS011;46248;58.364;25.582;2023-04-08T10:40:00;7.55;;;3.00;;
59766;SDS011;46248;58.364;25.582;2023-04-08T10:43:25;2.72;;;1.52;;
59766;SDS011;46248;58.364;25.582;2023-04-08T10:46:53;5.40;;;2.00;;
59766;SDS011;46248;58.364;25.582;2023-04-08T10:50:17;4.80;;;2.60;;
59766;SDS011;46248;58.364;25.582;2023-04-08T10:53:42;2.13;;;1.00;;
59766;SDS011;46248;58.364;25.582;2023-04-08T10:57:04;3.30;;;1.92;;
59766;SDS011;46248;58.364;25.582;2023-04-08T11:00:31;3.38;;;1.20;;
59766;SDS011;46248;58.364;25.582;2023-04-08T11:03:54;1.15;;;0.90;;
59766;SDS011;46248;58.364;25.582;2023-04-08T11:07:20;0.80;;;0.80;;
59766;SDS011;46248;58.364;25.582;2023-04-08T11:10:42;5.07;;;1.00;;
59766;SDS011;46248;58.364;25.582;2023-04-08T11:14:04;6.97;;;3.58;;
59766;SDS011;46248;58.364;25.582;2023-04-08T11:17:27;5.65;;;2.80;;
59766;SDS011;46248;58.364;25.582;2023-04-08T11:20:49;4.35;;;2.30;;
59766;SDS011;46248;58.364;25.582;2023-04-08T11:24:13;2.22;;;0.80;;
59766;SDS011;46248;58.364;25.582;2023-04-08T11:27:36;5.38;;;1.33;;
59766;SDS011;46248;58.364;25.582;2023-04-08T11:30:58;1.77;;;0.80;;
59766;SDS011;46248;58.364;25.582;2023-04-08T11:34:22;3.88;;;1.52;;
59766;SDS011;46248;58.364;25.582;2023-04-08T11:37:45;0.80;;;0.80;;
59766;SDS011;46248;58.364;25.582;2023-04-08T11:41:10;0.80;;;0.75;;
59766;SDS011;46248;58.364;25.582;2023-04-08T11:44:32;1.10;;;0.75;;
59766;SDS011;46248;58.364;25.582;2023-04-08T11:47:54;2.35;;;1.00;;
59766;SDS011;46248;58.364;25.582;2023-04-08T11:51:16;0.98;;;0.73;;
59766;SDS011;46248;58.364;25.582;2023-04-08T11:54:39;0.90;;;0.70;;
59766;SDS011;46248;58.364;25.582;2023-04-08T11:58:04;38.40;;;15.60;;
59766;SDS011;46248;58.364;25.582;2023-04-08T12:01:26;3.65;;;2.20;;
59766;SDS011;46248;58.364;25.582;2023-04-08T12:04:48;2.40;;;1.45;;
59766;SDS011;46248;58.364;25.582;2023-04-08T12:08:11;1.42;;;1.27;;
59766;SDS011;46248;58.364;25.582;2023-04-08T12:11:33;1.30;;;1.17;;
59766;SDS011;46248;58.364;25.582;2023-04-08T12:14:57;1.92;;;0.90;;
59766;SDS011;46248;58.364;25.582;2023-04-08T12:18:19;1.70;;;1.20;;
59766;SDS011;46248;58.364;25.582;2023-04-08T12:21:42;1.25;;;1.10;;
59766;SDS011;46248;58.364;25.582;2023-04-08T12:25:04;0.80;;;0.80;;
59766;SDS011;46248;58.364;25.582;2023-04-08T12:28:27;1.55;;;1.00;;
59766;SDS011;46248;58.364;25.582;2023-04-08T12:31:50;3.63;;;1.38;;
59766;SDS011;46248;58.364;25.582;2023-04-08T12:35:12;3.55;;;1.27;;
59766;SDS011;46248;58.364;25.582;2023-04-08T12:38:35;3.35;;;1.52;;
59766;SDS011;46248;58.364;25.582;2023-04-08T12:41:57;2.47;;;1.33;;
59766;SDS011;46248;58.364;25.582;2023-04-08T12:45:20;4.55;;;1.80;;
59766;SDS011;46248;58.364;25.582;2023-04-08T12:48:43;2.63;;;1.02;;
59766;SDS011;46248;58.364;25.582;2023-04-08T12:52:06;1.65;;;1.40;;
59766;SDS011;46248;58.364;25.582;2023-04-08T12:55:28;1.02;;;0.90;;
59766;SDS011;46248;58.364;25.582;2023-04-08T12:58:50;1.58;;;1.40;;
59766;SDS011;46248;58.364;25.582;2023-04-08T13:02:12;3.05;;;1.27;;
59766;SDS011;46248;58.364;25.582;2023-04-08T13:05:35;1.55;;;1.23;;
59766;SDS011;46248;58.364;25.582;2023-04-08T13:09:03;7.70;;;1.77;;
59766;SDS011;46248;58.364;25.582;2023-04-08T13:12:25;2.20;;;1.17;;
59766;SDS011;46248;58.364;25.582;2023-04-08T13:15:47;2.05;;;0.90;;
59766;SDS011;46248;58.364;25.582;2023-04-08T13:19:09;1.75;;;0.50;;
59766;SDS011;46248;58.364;25.582;2023-04-08T13:22:33;1.33;;;0.47;;
59766;SDS011;46248;58.364;25.582;2023-04-08T13:25:55;2.58;;;1.67;;
59766;SDS011;46248;58.364;25.582;2023-04-08T13:29:17;2.83;;;1.42;;
59766;SDS011;46248;58.364;25.582;2023-04-08T13:32:39;1.25;;;0.80;;
59766;SDS011;46248;58.364;25.582;2023-04-08T13:36:01;0.88;;;0.85;;
59766;SDS011;46248;58.364;25.582;2023-04-08T13:39:24;1.65;;;0.80;;
59766;SDS011;46248;58.364;25.582;2023-04-08T13:42:46;1.70;;;0.70;;
59766;SDS011;46248;58.364;25.582;2023-04-08T13:46:08;2.17;;;1.20;;
59766;SDS011;46248;58.364;25.582;2023-04-08T13:49:30;1.90;;;0.95;;
59766;SDS011;46248;58.364;25.582;2023-04-08T13:52:52;2.25;;;1.20;;
59766;SDS011;46248;58.364;25.582;2023-04-08T13:56:15;2.47;;;1.13;;
59766;SDS011;46248;58.364;25.582;2023-04-08T13:59:38;1.05;;;0.95;;
59766;SDS011;46248;58.364;25.582;2023-04-08T14:03:03;1.45;;;1.15;;
59766;SDS011;46248;58.364;25.582;2023-04-08T14:06:25;1.83;;;1.60;;
59766;SDS011;46248;58.364;25.582;2023-04-08T14:09:47;1.40;;;1.25;;
59766;SDS011;46248;58.364;25.582;2023-04-08T14:13:10;3.63;;;2.13;;
59766;SDS011;46248;58.364;25.582;2023-04-08T14:16:32;1.17;;;1.08;;
59766;SDS011;46248;58.364;25.582;2023-04-08T14:19:55;1.85;;;1.02;;
59766;SDS011;46248;58.364;25.582;2023-04-08T14:23:18;7.00;;;2.92;;
59766;SDS011;46248;58.364;25.582;2023-04-08T14:26:40;2.28;;;1.80;;
59766;SDS011;46248;58.364;25.582;2023-04-08T14:30:04;6.70;;;5.35;;
59766;SDS011;46248;58.364;25.582;2023-04-08T14:33:28;5.43;;;2.47;;
59766;SDS011;46248;58.364;25.582;2023-04-08T14:36:49;2.70;;;1.48;;
59766;SDS011;46248;58.364;25.582;2023-04-08T14:40:12;5.93;;;3.03;;
59766;SDS011;46248;58.364;25.582;2023-04-08T14:43:34;3.72;;;2.20;;
59766;SDS011;46248;58.364;25.582;2023-04-08T14:46:58;7.18;;;4.90;;
59766;SDS011;46248;58.364;25.582;2023-04-08T14:50:20;7.07;;;3.78;;
59766;SDS011;46248;58.364;25.582;2023-04-08T14:53:42;2.35;;;1.60;;
59766;SDS011;46248;58.364;25.582;2023-04-08T14:57:04;2.60;;;1.42;;
59766;SDS011;46248;58.364;25.582;2023-04-08T15:00:26;3.20;;;2.65;;
59766;SDS011;46248;58.364;25.582;2023-04-08T15:03:49;3.15;;;1.63;;
59766;SDS011;46248;58.364;25.582;2023-04-08T15:07:11;4.00;;;2.72;;
59766;SDS011;46248;58.364;25.582;2023-04-08T15:10:34;1.63;;;0.90;;
59766;SDS011;46248;58.364;25.582;2023-04-08T15:13:55;2.38;;;1.60;;
59766;SDS011;46248;58.364;25.582;2023-04-08T15:17:17;2.97;;;1.88;;
59766;SDS011;46248;58.364;25.582;2023-04-08T15:20:40;2.42;;;1.40;;
59766;SDS011;46248;58.364;25.582;2023-04-08T15:24:02;1.98;;;1.30;;
59766;SDS011;46248;58.364;25.582;2023-04-08T15:27:27;3.13;;;1.80;;
59766;SDS011;46248;58.364;25.582;2023-04-08T15:30:48;4.18;;;2.10;;
59766;SDS011;46248;58.364;25.582;2023-04-08T15:34:10;8.48;;;2.90;;
59766;SDS011;46248;58.364;25.582;2023-04-08T15:37:34;3.00;;;1.83;;
59766;SDS011;46248;58.364;25.582;2023-04-08T15:40:56;1.30;;;1.20;;
59766;SDS011;46248;58.364;25.582;2023-04-08T15:44:18;2.47;;;1.70;;
59766;SDS011;46248;58.364;25.582;2023-04-08T15:47:41;2.92;;;1.30;;
59766;SDS011;46248;58.364;25.582;2023-04-08T15:51:05;3.85;;;1.05;;
59766;SDS011;46248;58.364;25.582;2023-04-08T15:54:29;3.72;;;1.40;;
59766;SDS011;46248;58.364;25.582;2023-04-08T15:57:52;12.60;;;7.72;;
59766;SDS011;46248;58.364;25.582;2023-04-08T16:01:15;13.25;;;8.65;;
59766;SDS011;46248;58.364;25.582;2023-04-08T16:04:38;5.43;;;4.72;;
59766;SDS011;46248;58.364;25.582;2023-04-08T16:08:00;12.77;;;10.80;;
59766;SDS011;46248;58.364;25.582;2023-04-08T16:11:25;8.95;;;8.13;;
59766;SDS011;46248;58.364;25.582;2023-04-08T16:14:47;11.23;;;6.30;;
59766;SDS011;46248;58.364;25.582;2023-04-08T16:18:10;12.60;;;6.40;;
59766;SDS011;46248;58.364;25.582;2023-04-08T16:21:32;3.70;;;2.60;;
59766;SDS011;46248;58.364;25.582;2023-04-08T16:24:55;8.75;;;2.80;;
59766;SDS011;46248;58.364;25.582;2023-04-08T16:28:19;5.78;;;3.17;;
59766;SDS011;46248;58.364;25.582;2023-04-08T16:31:42;4.28;;;2.63;;
59766;SDS011;46248;58.364;25.582;2023-04-08T16:35:05;15.43;;;5.75;;
59766;SDS011;46248;58.364;25.582;2023-04-08T16:38:27;26.33;;;10.85;;
59766;SDS011;46248;58.364;25.582;2023-04-08T16:41:50;7.80;;;4.22;;
59766;SDS011;46248;58.364;25.582;2023-04-08T16:45:14;10.95;;;5.10;;
59766;SDS011;46248;58.364;25.582;2023-04-08T16:48:36;31.67;;;13.75;;
59766;SDS011;46248;58.364;25.582;2023-04-08T16:52:00;25.27;;;10.82;;
59766;SDS011;46248;58.364;25.582;2023-04-08T16:55:22;26.25;;;11.25;;
59766;SDS011;46248;58.364;25.582;2023-04-08T16:58:45;23.73;;;10.00;;
59766;SDS011;46248;58.364;25.582;2023-04-08T17:02:08;27.48;;;14.60;;
59766;SDS011;46248;58.364;25.582;2023-04-08T17:05:30;17.30;;;8.35;;
59766;SDS011;46248;58.364;25.582;2023-04-08T17:08:53;31.90;;;11.57;;
59766;SDS011;46248;58.364;25.582;2023-04-08T17:12:15;34.88;;;16.70;;
59766;SDS011;46248;58.364;25.582;2023-04-08T17:15:37;24.33;;;10.70;;
59766;SDS011;46248;58.364;25.582;2023-04-08T17:19:01;13.18;;;6.20;;
59766;SDS011;46248;58.364;25.582;2023-04-08T17:22:23;7.95;;;4.65;;
59766;SDS011;46248;58.364;25.582;2023-04-08T17:25:45;7.38;;;4.15;;
59766;SDS011;46248;58.364;25.582;2023-04-08T17:29:07;8.10;;;4.60;;
59766;SDS011;46248;58.364;25.582;2023-04-08T17:32:29;9.70;;;5.25;;
59766;SDS011;46248;58.364;25.582;2023-04-08T17:35:52;26.95;;;12.50;;
59766;SDS011;46248;58.364;25.582;2023-04-08T17:39:15;48.45;;;24.08;;
59766;SDS011;46248;58.364;25.582;2023-04-08T17:42:37;46.60;;;21.80;;
59766;SDS011;46248;58.364;25.582;2023-04-08T17:45:59;70.60;;;36.78;;
59766;SDS011;46248;58.364;25.582;2023-04-08T17:49:23;15.43;;;8.23;;
59766;SDS011;46248;58.364;25.582;2023-04-08T17:52:46;9.23;;;4.75;;
59766;SDS011;46248;58.364;25.582;2023-04-08T17:56:08;11.68;;;5.20;;
59766;SDS011;46248;58.364;25.582;2023-04-08T17:59:31;5.07;;;3.42;;
59766;SDS011;46248;58.364;25.582;2023-04-08T18:02:53;8.13;;;4.65;;
59766;SDS011;46248;58.364;25.582;2023-04-08T18:06:15;19.75;;;8.63;;
59766;SDS011;46248;58.364;25.582;2023-04-08T18:09:39;10.85;;;3.80;;
59766;SDS011;46248;58.364;25.582;2023-04-08T18:13:02;8.57;;;4.43;;
59766;SDS011;46248;58.364;25.582;2023-04-08T18:16:26;12.45;;;6.28;;
59766;SDS011;46248;58.364;25.582;2023-04-08T18:19:48;7.97;;;3.15;;
59766;SDS011;46248;58.364;25.582;2023-04-08T18:23:10;5.22;;;3.53;;
59766;SDS011;46248;58.364;25.582;2023-04-08T18:26:34;17.00;;;6.57;;
59766;SDS011;46248;58.364;25.582;2023-04-08T18:29:56;9.93;;;4.75;;
59766;SDS011;46248;58.364;25.582;2023-04-08T18:33:18;4.43;;;2.60;;
59766;SDS011;46248;58.364;25.582;2023-04-08T18:36:41;7.57;;;3.40;;
59766;SDS011;46248;58.364;25.582;2023-04-08T18:40:03;10.32;;;5.03;;
59766;SDS011;46248;58.364;25.582;2023-04-08T18:43:27;9.02;;;4.63;;
59766;SDS011;46248;58.364;25.582;2023-04-08T18:46:50;10.10;;;5.30;;
59766;SDS011;46248;58.364;25.582;2023-04-08T18:50:11;8.13;;;3.85;;
59766;SDS011;46248;58.364;25.582;2023-04-08T18:53:33;11.10;;;5.15;;
59766;SDS011;46248;58.364;25.582;2023-04-08T18:56:56;10.18;;;4.90;;
59766;SDS011;46248;58.364;25.582;2023-04-08T19:00:20;7.05;;;4.45;;
59766;SDS011;46248;58.364;25.582;2023-04-08T19:03:42;6.50;;;2.35;;
59766;SDS011;46248;58.364;25.582;2023-04-08T19:07:04;3.47;;;1.80;;
59766;SDS011;46248;58.364;25.582;2023-04-08T19:10:28;5.88;;;2.53;;
59766;SDS011;46248;58.364;25.582;2023-04-08T19:13:50;6.72;;;2.65;;
59766;SDS011;46248;58.364;25.582;2023-04-08T19:17:13;4.90;;;2.13;;
59766;SDS011;46248;58.364;25.582;2023-04-08T19:20:35;7.82;;;2.38;;
59766;SDS011;46248;58.364;25.582;2023-04-08T19:23:58;4.00;;;2.17;;
59766;SDS011;46248;58.364;25.582;2023-04-08T19:27:20;7.55;;;5.05;;
59766;SDS011;46248;58.364;25.582;2023-04-08T19:30:42;4.30;;;3.65;;
59766;SDS011;46248;58.364;25.582;2023-04-08T19:34:05;8.13;;;2.95;;
59766;SDS011;46248;58.364;25.582;2023-04-08T19:37:27;4.55;;;2.00;;
59766;SDS011;46248;58.364;25.582;2023-04-08T19:40:49;5.30;;;2.38;;
59766;SDS011;46248;58.364;25.582;2023-04-08T19:44:11;6.57;;;2.22;;
59766;SDS011;46248;58.364;25.582;2023-04-08T19:47:33;5.18;;;2.10;;
59766;SDS011;46248;58.364;25.582;2023-04-08T19:50:57;14.25;;;5.88;;
59766;SDS011;46248;58.364;25.582;2023-04-08T19:54:20;5.78;;;2.65;;
59766;SDS011;46248;58.364;25.582;2023-04-08T19:57:42;3.38;;;1.73;;
59766;SDS011;46248;58.364;25.582;2023-04-08T20:01:04;3.58;;;2.00;;
59766;SDS011;46248;58.364;25.582;2023-04-08T20:04:26;4.72;;;3.00;;
59766;SDS011;46248;58.364;25.582;2023-04-08T20:07:50;10.93;;;3.58;;
59766;SDS011;46248;58.364;25.582;2023-04-08T20:11:12;5.95;;;3.30;;
59766;SDS011;46248;58.364;25.582;2023-04-08T20:14:34;5.60;;;2.95;;
59766;SDS011;46248;58.364;25.582;2023-04-08T20:17:59;3.95;;;2.03;;